sensor_id;sensor_type;location;lat;lon;timestamp;P1;durP1;ratioP1;P2;durP2;ratioP2
7753;SDS011;3921;42.266;23.122;2023-04-29T00:00:47;6.83;;;4.63;;
7753;SDS011;3921;42.266;23.122;2023-04-29T00:03:14;10.23;;;5.80;;
7753;SDS011;3921;42.266;23.122;2023-04-29T00:05:41;7.27;;;5.30;;
7753;SDS011;3921;42.266;23.122;2023-04-29T00:08:10;7.27;;;5.80;;
7753;SDS011;3921;42.266;23.122;2023-04-29T00:10:37;12.43;;;6.93;;
7753;SDS011;3921;42.266;23.122;2023-04-29T00:13:04;11.20;;;7.03;;
7753;SDS011;3921;42.266;23.122;2023-04-29T00:15:31;12.77;;;7.40;;
7753;SDS011;3921;42.266;23.122;2023-04-29T00:17:58;12.97;;;6.87;;
7753;SDS011;3921;42.266;23.122;2023-04-29T00:20:26;9.00;;;5.87;;
7753;SDS011;3921;42.266;23.122;2023-04-29T00:22:52;11.43;;;6.30;;
7753;SDS011;3921;42.266;23.122;2023-04-29T00:25:21;10.87;;;5.40;;
7753;SDS011;3921;42.266;23.122;2023-04-29T00:27:48;9.67;;;6.13;;
7753;SDS011;3921;42.266;23.122;2023-04-29T00:30:15;8.40;;;5.80;;
7753;SDS011;3921;42.266;23.122;2023-04-29T00:32:42;8.27;;;5.60;;
7753;SDS011;3921;42.266;23.122;2023-04-29T00:35:09;10.67;;;6.40;;
7753;SDS011;3921;42.266;23.122;2023-04-29T00:37:36;10.33;;;5.50;;
7753;SDS011;3921;42.266;23.122;2023-04-29T00:40:03;7.43;;;5.07;;
7753;SDS011;3921;42.266;23.122;2023-04-29T00:42:32;10.27;;;5.00;;
7753;SDS011;3921;42.266;23.122;2023-04-29T00:44:59;9.50;;;5.67;;
7753;SDS011;3921;42.266;23.122;2023-04-29T00:47:27;9.17;;;5.93;;
7753;SDS011;3921;42.266;23.122;2023-04-29T00:49:54;9.83;;;5.50;;
7753;SDS011;3921;42.266;23.122;2023-04-29T00:52:21;9.07;;;5.53;;
7753;SDS011;3921;42.266;23.122;2023-04-29T00:54:49;8.23;;;5.93;;
7753;SDS011;3921;42.266;23.122;2023-04-29T00:57:17;7.67;;;5.37;;
7753;SDS011;3921;42.266;23.122;2023-04-29T00:59:46;5.93;;;4.60;;
7753;SDS011;3921;42.266;23.122;2023-04-29T01:02:14;7.87;;;5.10;;
7753;SDS011;3921;42.266;23.122;2023-04-29T01:04:42;7.93;;;5.20;;
7753;SDS011;3921;42.266;23.122;2023-04-29T01:07:12;8.50;;;5.37;;
7753;SDS011;3921;42.266;23.122;2023-04-29T01:09:44;8.10;;;5.37;;
7753;SDS011;3921;42.266;23.122;2023-04-29T01:12:19;12.33;;;6.40;;
7753;SDS011;3921;42.266;23.122;2023-04-29T01:14:57;9.77;;;6.50;;
7753;SDS011;3921;42.266;23.122;2023-04-29T01:17:30;9.00;;;6.20;;
7753;SDS011;3921;42.266;23.122;2023-04-29T01:20:06;9.67;;;6.63;;
7753;SDS011;3921;42.266;23.122;2023-04-29T01:22:35;7.67;;;5.90;;
7753;SDS011;3921;42.266;23.122;2023-04-29T01:25:05;11.03;;;6.50;;
7753;SDS011;3921;42.266;23.122;2023-04-29T01:27:33;10.50;;;6.23;;
7753;SDS011;3921;42.266;23.122;2023-04-29T01:30:09;6.40;;;5.30;;
7753;SDS011;3921;42.266;23.122;2023-04-29T01:32:45;6.60;;;4.87;;
7753;SDS011;3921;42.266;23.122;2023-04-29T01:35:21;9.20;;;5.90;;
7753;SDS011;3921;42.266;23.122;2023-04-29T01:38:00;7.90;;;5.30;;
7753;SDS011;3921;42.266;23.122;2023-04-29T01:40:42;16.50;;;7.90;;
7753;SDS011;3921;42.266;23.122;2023-04-29T01:43:13;13.93;;;7.60;;
7753;SDS011;3921;42.266;23.122;2023-04-29T01:45:42;11.57;;;6.60;;
7753;SDS011;3921;42.266;23.122;2023-04-29T01:48:10;9.50;;;5.90;;
7753;SDS011;3921;42.266;23.122;2023-04-29T01:50:37;9.13;;;5.83;;
7753;SDS011;3921;42.266;23.122;2023-04-29T01:53:04;8.20;;;5.63;;
7753;SDS011;3921;42.266;23.122;2023-04-29T01:55:32;8.93;;;5.50;;
7753;SDS011;3921;42.266;23.122;2023-04-29T02:01:04;7.10;;;4.80;;
7753;SDS011;3921;42.266;23.122;2023-04-29T02:03:31;6.90;;;5.10;;
7753;SDS011;3921;42.266;23.122;2023-04-29T02:05:59;8.60;;;5.30;;
7753;SDS011;3921;42.266;23.122;2023-04-29T02:08:26;10.80;;;4.73;;
7753;SDS011;3921;42.266;23.122;2023-04-29T02:10:54;6.13;;;4.50;;
7753;SDS011;3921;42.266;23.122;2023-04-29T02:13:22;6.80;;;4.93;;
7753;SDS011;3921;42.266;23.122;2023-04-29T02:15:50;7.23;;;5.20;;
7753;SDS011;3921;42.266;23.122;2023-04-29T02:18:17;7.40;;;4.70;;
7753;SDS011;3921;42.266;23.122;2023-04-29T02:20:44;7.13;;;4.90;;
7753;SDS011;3921;42.266;23.122;2023-04-29T02:23:11;7.70;;;5.27;;
7753;SDS011;3921;42.266;23.122;2023-04-29T02:25:38;7.83;;;5.43;;
7753;SDS011;3921;42.266;23.122;2023-04-29T02:28:05;6.50;;;4.47;;
7753;SDS011;3921;42.266;23.122;2023-04-29T02:30:32;7.03;;;4.83;;
7753;SDS011;3921;42.266;23.122;2023-04-29T02:33:00;8.33;;;5.03;;
7753;SDS011;3921;42.266;23.122;2023-04-29T02:35:27;4.93;;;4.20;;
7753;SDS011;3921;42.266;23.122;2023-04-29T02:37:54;6.47;;;5.30;;
7753;SDS011;3921;42.266;23.122;2023-04-29T02:40:21;6.80;;;4.90;;
7753;SDS011;3921;42.266;23.122;2023-04-29T02:42:49;6.80;;;5.10;;
7753;SDS011;3921;42.266;23.122;2023-04-29T02:45:16;8.40;;;5.30;;
7753;SDS011;3921;42.266;23.122;2023-04-29T02:47:44;7.83;;;4.93;;
7753;SDS011;3921;42.266;23.122;2023-04-29T02:50:12;9.93;;;5.10;;
7753;SDS011;3921;42.266;23.122;2023-04-29T02:52:39;7.07;;;5.37;;
7753;SDS011;3921;42.266;23.122;2023-04-29T02:55:06;6.67;;;5.37;;
7753;SDS011;3921;42.266;23.122;2023-04-29T02:57:34;6.80;;;4.80;;
7753;SDS011;3921;42.266;23.122;2023-04-29T03:00:02;9.67;;;5.07;;
7753;SDS011;3921;42.266;23.122;2023-04-29T03:02:29;9.90;;;5.43;;
7753;SDS011;3921;42.266;23.122;2023-04-29T03:04:56;8.10;;;4.60;;
7753;SDS011;3921;42.266;23.122;2023-04-29T03:07:25;8.47;;;4.87;;
7753;SDS011;3921;42.266;23.122;2023-04-29T03:09:52;6.33;;;4.47;;
7753;SDS011;3921;42.266;23.122;2023-04-29T03:12:19;9.33;;;4.73;;
7753;SDS011;3921;42.266;23.122;2023-04-29T03:14:48;6.40;;;4.70;;
7753;SDS011;3921;42.266;23.122;2023-04-29T03:20:19;7.43;;;5.47;;
7753;SDS011;3921;42.266;23.122;2023-04-29T03:22:47;7.83;;;5.73;;
7753;SDS011;3921;42.266;23.122;2023-04-29T03:25:14;14.07;;;7.30;;
7753;SDS011;3921;42.266;23.122;2023-04-29T03:27:41;10.23;;;7.00;;
7753;SDS011;3921;42.266;23.122;2023-04-29T03:30:14;10.33;;;6.23;;
7753;SDS011;3921;42.266;23.122;2023-04-29T03:32:41;6.37;;;5.30;;
7753;SDS011;3921;42.266;23.122;2023-04-29T03:35:08;8.00;;;5.70;;
7753;SDS011;3921;42.266;23.122;2023-04-29T03:37:37;7.77;;;5.47;;
7753;SDS011;3921;42.266;23.122;2023-04-29T03:40:06;11.67;;;6.77;;
7753;SDS011;3921;42.266;23.122;2023-04-29T03:42:34;8.87;;;5.43;;
7753;SDS011;3921;42.266;23.122;2023-04-29T03:45:01;12.37;;;5.30;;
7753;SDS011;3921;42.266;23.122;2023-04-29T03:47:28;7.30;;;5.33;;
7753;SDS011;3921;42.266;23.122;2023-04-29T03:49:55;7.97;;;5.30;;
7753;SDS011;3921;42.266;23.122;2023-04-29T03:52:22;7.27;;;5.00;;
7753;SDS011;3921;42.266;23.122;2023-04-29T03:54:49;7.37;;;4.73;;
7753;SDS011;3921;42.266;23.122;2023-04-29T03:57:17;5.13;;;4.30;;
7753;SDS011;3921;42.266;23.122;2023-04-29T03:59:44;6.17;;;4.63;;
7753;SDS011;3921;42.266;23.122;2023-04-29T04:02:14;6.33;;;4.77;;
7753;SDS011;3921;42.266;23.122;2023-04-29T04:04:42;6.53;;;4.70;;
7753;SDS011;3921;42.266;23.122;2023-04-29T04:07:08;7.10;;;5.03;;
7753;SDS011;3921;42.266;23.122;2023-04-29T04:09:36;7.33;;;4.90;;
7753;SDS011;3921;42.266;23.122;2023-04-29T04:12:03;7.70;;;5.10;;
7753;SDS011;3921;42.266;23.122;2023-04-29T04:14:31;7.50;;;4.77;;
7753;SDS011;3921;42.266;23.122;2023-04-29T04:16:58;7.30;;;4.60;;
7753;SDS011;3921;42.266;23.122;2023-04-29T04:19:26;5.00;;;4.23;;
7753;SDS011;3921;42.266;23.122;2023-04-29T04:21:53;7.97;;;5.10;;
7753;SDS011;3921;42.266;23.122;2023-04-29T04:24:20;7.80;;;4.90;;
7753;SDS011;3921;42.266;23.122;2023-04-29T04:26:48;8.70;;;5.10;;
7753;SDS011;3921;42.266;23.122;2023-04-29T04:29:15;7.07;;;4.70;;
7753;SDS011;3921;42.266;23.122;2023-04-29T04:31:43;11.67;;;6.17;;
7753;SDS011;3921;42.266;23.122;2023-04-29T04:34:10;8.00;;;5.20;;
7753;SDS011;3921;42.266;23.122;2023-04-29T04:36:52;5.87;;;4.70;;
7753;SDS011;3921;42.266;23.122;2023-04-29T04:39:19;11.03;;;4.77;;
7753;SDS011;3921;42.266;23.122;2023-04-29T04:41:46;6.33;;;4.73;;
7753;SDS011;3921;42.266;23.122;2023-04-29T04:44:13;6.70;;;4.70;;
7753;SDS011;3921;42.266;23.122;2023-04-29T04:46:41;8.43;;;5.10;;
7753;SDS011;3921;42.266;23.122;2023-04-29T04:49:09;7.73;;;4.80;;
7753;SDS011;3921;42.266;23.122;2023-04-29T04:51:36;8.77;;;4.63;;
7753;SDS011;3921;42.266;23.122;2023-04-29T04:54:03;6.70;;;5.37;;
7753;SDS011;3921;42.266;23.122;2023-04-29T04:56:30;11.10;;;5.27;;
7753;SDS011;3921;42.266;23.122;2023-04-29T04:58:57;7.10;;;5.33;;
7753;SDS011;3921;42.266;23.122;2023-04-29T05:01:27;8.60;;;5.73;;
7753;SDS011;3921;42.266;23.122;2023-04-29T05:03:54;9.43;;;4.97;;
7753;SDS011;3921;42.266;23.122;2023-04-29T05:06:23;8.87;;;5.17;;
7753;SDS011;3921;42.266;23.122;2023-04-29T05:08:50;7.80;;;5.40;;
7753;SDS011;3921;42.266;23.122;2023-04-29T05:11:17;7.67;;;5.87;;
7753;SDS011;3921;42.266;23.122;2023-04-29T05:13:44;8.60;;;5.60;;
7753;SDS011;3921;42.266;23.122;2023-04-29T05:16:11;11.53;;;6.23;;
7753;SDS011;3921;42.266;23.122;2023-04-29T05:18:39;9.60;;;6.07;;
7753;SDS011;3921;42.266;23.122;2023-04-29T05:21:09;13.77;;;6.73;;
7753;SDS011;3921;42.266;23.122;2023-04-29T05:23:37;10.07;;;6.17;;
7753;SDS011;3921;42.266;23.122;2023-04-29T05:26:04;10.53;;;6.20;;
7753;SDS011;3921;42.266;23.122;2023-04-29T05:28:31;10.37;;;5.60;;
7753;SDS011;3921;42.266;23.122;2023-04-29T05:30:58;9.23;;;5.73;;
7753;SDS011;3921;42.266;23.122;2023-04-29T05:33:25;11.37;;;6.33;;
7753;SDS011;3921;42.266;23.122;2023-04-29T05:38:27;11.37;;;6.57;;
7753;SDS011;3921;42.266;23.122;2023-04-29T05:40:56;10.03;;;7.17;;
7753;SDS011;3921;42.266;23.122;2023-04-29T05:43:26;12.93;;;7.07;;
7753;SDS011;3921;42.266;23.122;2023-04-29T05:45:54;10.27;;;6.50;;
7753;SDS011;3921;42.266;23.122;2023-04-29T05:48:21;13.43;;;8.50;;
7753;SDS011;3921;42.266;23.122;2023-04-29T05:50:49;13.67;;;7.10;;
7753;SDS011;3921;42.266;23.122;2023-04-29T05:53:16;9.77;;;7.00;;
7753;SDS011;3921;42.266;23.122;2023-04-29T05:55:43;9.20;;;6.17;;
7753;SDS011;3921;42.266;23.122;2023-04-29T05:58:12;11.17;;;6.77;;
7753;SDS011;3921;42.266;23.122;2023-04-29T06:00:39;10.13;;;6.43;;
7753;SDS011;3921;42.266;23.122;2023-04-29T06:03:08;10.40;;;6.33;;
7753;SDS011;3921;42.266;23.122;2023-04-29T06:05:35;9.97;;;6.77;;
7753;SDS011;3921;42.266;23.122;2023-04-29T06:08:03;10.50;;;6.63;;
7753;SDS011;3921;42.266;23.122;2023-04-29T06:10:30;11.77;;;6.30;;
7753;SDS011;3921;42.266;23.122;2023-04-29T06:12:57;9.80;;;6.17;;
7753;SDS011;3921;42.266;23.122;2023-04-29T06:20:47;7.93;;;5.20;;
7753;SDS011;3921;42.266;23.122;2023-04-29T06:23:14;7.13;;;5.37;;
7753;SDS011;3921;42.266;23.122;2023-04-29T06:25:41;6.87;;;4.73;;
7753;SDS011;3921;42.266;23.122;2023-04-29T06:28:09;6.23;;;4.07;;
7753;SDS011;3921;42.266;23.122;2023-04-29T06:30:36;8.10;;;4.60;;
7753;SDS011;3921;42.266;23.122;2023-04-29T06:33:03;6.57;;;4.43;;
7753;SDS011;3921;42.266;23.122;2023-04-29T06:35:32;9.00;;;4.67;;
7753;SDS011;3921;42.266;23.122;2023-04-29T06:37:59;8.67;;;4.80;;
7753;SDS011;3921;42.266;23.122;2023-04-29T06:40:26;7.30;;;4.23;;
7753;SDS011;3921;42.266;23.122;2023-04-29T06:42:53;7.33;;;4.23;;
7753;SDS011;3921;42.266;23.122;2023-04-29T06:45:57;6.00;;;4.13;;
7753;SDS011;3921;42.266;23.122;2023-04-29T06:48:24;5.47;;;3.13;;
7753;SDS011;3921;42.266;23.122;2023-04-29T06:50:54;4.33;;;3.23;;
7753;SDS011;3921;42.266;23.122;2023-04-29T06:53:22;4.97;;;2.90;;
7753;SDS011;3921;42.266;23.122;2023-04-29T06:55:50;4.60;;;3.33;;
7753;SDS011;3921;42.266;23.122;2023-04-29T06:58:17;4.83;;;3.47;;
7753;SDS011;3921;42.266;23.122;2023-04-29T07:00:46;6.40;;;3.07;;
7753;SDS011;3921;42.266;23.122;2023-04-29T07:05:59;6.63;;;4.23;;
7753;SDS011;3921;42.266;23.122;2023-04-29T07:08:26;7.13;;;3.50;;
7753;SDS011;3921;42.266;23.122;2023-04-29T07:10:54;5.10;;;3.83;;
7753;SDS011;3921;42.266;23.122;2023-04-29T07:13:22;4.97;;;3.23;;
7753;SDS011;3921;42.266;23.122;2023-04-29T07:15:50;4.87;;;3.73;;
7753;SDS011;3921;42.266;23.122;2023-04-29T07:18:17;5.07;;;3.90;;
7753;SDS011;3921;42.266;23.122;2023-04-29T07:20:47;7.47;;;4.23;;
7753;SDS011;3921;42.266;23.122;2023-04-29T07:23:18;6.47;;;3.97;;
7753;SDS011;3921;42.266;23.122;2023-04-29T07:25:45;7.27;;;4.27;;
7753;SDS011;3921;42.266;23.122;2023-04-29T07:28:13;6.70;;;4.00;;
7753;SDS011;3921;42.266;23.122;2023-04-29T07:30:40;9.40;;;4.33;;
7753;SDS011;3921;42.266;23.122;2023-04-29T07:33:07;5.70;;;3.43;;
7753;SDS011;3921;42.266;23.122;2023-04-29T07:35:35;6.27;;;3.60;;
7753;SDS011;3921;42.266;23.122;2023-04-29T07:38:02;5.07;;;3.30;;
7753;SDS011;3921;42.266;23.122;2023-04-29T07:40:31;6.03;;;3.63;;
7753;SDS011;3921;42.266;23.122;2023-04-29T07:42:58;7.37;;;3.93;;
7753;SDS011;3921;42.266;23.122;2023-04-29T07:45:28;7.30;;;4.20;;
7753;SDS011;3921;42.266;23.122;2023-04-29T07:47:56;6.57;;;3.73;;
7753;SDS011;3921;42.266;23.122;2023-04-29T07:50:23;6.27;;;3.80;;
7753;SDS011;3921;42.266;23.122;2023-04-29T07:52:50;7.87;;;4.10;;
7753;SDS011;3921;42.266;23.122;2023-04-29T07:55:19;4.73;;;3.57;;
7753;SDS011;3921;42.266;23.122;2023-04-29T07:57:48;9.50;;;3.83;;
7753;SDS011;3921;42.266;23.122;2023-04-29T08:00:16;7.13;;;3.77;;
7753;SDS011;3921;42.266;23.122;2023-04-29T08:02:43;8.43;;;3.90;;
7753;SDS011;3921;42.266;23.122;2023-04-29T08:05:10;5.37;;;3.17;;
7753;SDS011;3921;42.266;23.122;2023-04-29T08:07:37;7.63;;;3.80;;
7753;SDS011;3921;42.266;23.122;2023-04-29T08:10:05;4.87;;;3.00;;
7753;SDS011;3921;42.266;23.122;2023-04-29T08:12:33;3.37;;;3.07;;
7753;SDS011;3921;42.266;23.122;2023-04-29T08:15:04;4.53;;;2.90;;
7753;SDS011;3921;42.266;23.122;2023-04-29T08:17:32;4.30;;;3.23;;
7753;SDS011;3921;42.266;23.122;2023-04-29T08:19:59;6.27;;;4.07;;
7753;SDS011;3921;42.266;23.122;2023-04-29T08:22:26;7.97;;;3.17;;
7753;SDS011;3921;42.266;23.122;2023-04-29T08:24:53;3.67;;;2.73;;
7753;SDS011;3921;42.266;23.122;2023-04-29T08:27:20;5.30;;;3.30;;
7753;SDS011;3921;42.266;23.122;2023-04-29T08:29:47;5.40;;;3.70;;
7753;SDS011;3921;42.266;23.122;2023-04-29T08:32:15;7.80;;;3.40;;
7753;SDS011;3921;42.266;23.122;2023-04-29T08:34:43;4.93;;;3.60;;
7753;SDS011;3921;42.266;23.122;2023-04-29T08:37:10;6.40;;;2.93;;
7753;SDS011;3921;42.266;23.122;2023-04-29T08:39:37;3.87;;;3.10;;
7753;SDS011;3921;42.266;23.122;2023-04-29T08:42:06;4.83;;;3.00;;
7753;SDS011;3921;42.266;23.122;2023-04-29T08:44:37;4.10;;;2.90;;
7753;SDS011;3921;42.266;23.122;2023-04-29T08:47:06;6.23;;;3.07;;
7753;SDS011;3921;42.266;23.122;2023-04-29T08:49:35;5.90;;;3.47;;
7753;SDS011;3921;42.266;23.122;2023-04-29T08:52:03;4.57;;;3.60;;
7753;SDS011;3921;42.266;23.122;2023-04-29T08:54:30;6.33;;;3.20;;
7753;SDS011;3921;42.266;23.122;2023-04-29T08:56:58;5.17;;;3.37;;
7753;SDS011;3921;42.266;23.122;2023-04-29T08:59:27;4.73;;;3.40;;
7753;SDS011;3921;42.266;23.122;2023-04-29T09:01:55;3.47;;;3.13;;
7753;SDS011;3921;42.266;23.122;2023-04-29T09:04:29;5.13;;;3.40;;
7753;SDS011;3921;42.266;23.122;2023-04-29T09:07:09;12.53;;;5.63;;
7753;SDS011;3921;42.266;23.122;2023-04-29T09:09:38;6.07;;;3.70;;
7753;SDS011;3921;42.266;23.122;2023-04-29T09:12:07;6.97;;;4.50;;
7753;SDS011;3921;42.266;23.122;2023-04-29T09:14:34;5.50;;;3.30;;
7753;SDS011;3921;42.266;23.122;2023-04-29T09:17:04;6.60;;;3.67;;
7753;SDS011;3921;42.266;23.122;2023-04-29T09:19:31;4.63;;;3.53;;
7753;SDS011;3921;42.266;23.122;2023-04-29T09:22:00;5.97;;;3.80;;
7753;SDS011;3921;42.266;23.122;2023-04-29T09:24:29;7.50;;;4.33;;
7753;SDS011;3921;42.266;23.122;2023-04-29T09:27:06;6.40;;;3.90;;
7753;SDS011;3921;42.266;23.122;2023-04-29T09:29:59;5.40;;;3.13;;
7753;SDS011;3921;42.266;23.122;2023-04-29T09:32:26;5.53;;;3.70;;
7753;SDS011;3921;42.266;23.122;2023-04-29T09:34:53;7.23;;;3.80;;
7753;SDS011;3921;42.266;23.122;2023-04-29T09:37:23;5.67;;;3.60;;
7753;SDS011;3921;42.266;23.122;2023-04-29T09:39:53;6.43;;;3.60;;
7753;SDS011;3921;42.266;23.122;2023-04-29T09:42:20;7.97;;;3.47;;
7753;SDS011;3921;42.266;23.122;2023-04-29T09:44:47;3.70;;;3.23;;
7753;SDS011;3921;42.266;23.122;2023-04-29T09:47:16;6.83;;;3.47;;
7753;SDS011;3921;42.266;23.122;2023-04-29T09:49:43;5.37;;;3.30;;
7753;SDS011;3921;42.266;23.122;2023-04-29T09:52:11;4.03;;;3.20;;
7753;SDS011;3921;42.266;23.122;2023-04-29T09:54:41;4.53;;;2.70;;
7753;SDS011;3921;42.266;23.122;2023-04-29T09:57:11;5.67;;;3.13;;
7753;SDS011;3921;42.266;23.122;2023-04-29T09:59:40;5.47;;;3.03;;
7753;SDS011;3921;42.266;23.122;2023-04-29T10:02:10;4.70;;;3.20;;
7753;SDS011;3921;42.266;23.122;2023-04-29T10:04:40;4.20;;;2.90;;
7753;SDS011;3921;42.266;23.122;2023-04-29T10:07:12;5.73;;;3.20;;
7753;SDS011;3921;42.266;23.122;2023-04-29T10:09:40;5.50;;;3.50;;
7753;SDS011;3921;42.266;23.122;2023-04-29T10:12:11;3.87;;;2.90;;
7753;SDS011;3921;42.266;23.122;2023-04-29T10:14:42;6.07;;;2.77;;
7753;SDS011;3921;42.266;23.122;2023-04-29T10:17:15;4.60;;;3.00;;
7753;SDS011;3921;42.266;23.122;2023-04-29T10:19:45;6.63;;;3.23;;
7753;SDS011;3921;42.266;23.122;2023-04-29T10:22:23;5.20;;;3.00;;
7753;SDS011;3921;42.266;23.122;2023-04-29T10:24:55;7.03;;;3.43;;
7753;SDS011;3921;42.266;23.122;2023-04-29T10:27:25;6.20;;;3.20;;
7753;SDS011;3921;42.266;23.122;2023-04-29T10:29:55;8.83;;;3.50;;
7753;SDS011;3921;42.266;23.122;2023-04-29T10:32:24;8.07;;;3.77;;
7753;SDS011;3921;42.266;23.122;2023-04-29T10:34:56;6.67;;;3.80;;
7753;SDS011;3921;42.266;23.122;2023-04-29T10:37:26;8.90;;;3.90;;
7753;SDS011;3921;42.266;23.122;2023-04-29T10:39:57;9.87;;;3.90;;
7753;SDS011;3921;42.266;23.122;2023-04-29T10:42:36;12.63;;;4.80;;
7753;SDS011;3921;42.266;23.122;2023-04-29T10:45:24;10.93;;;4.47;;
7753;SDS011;3921;42.266;23.122;2023-04-29T10:48:12;14.90;;;6.00;;
7753;SDS011;3921;42.266;23.122;2023-04-29T10:51:01;16.37;;;5.63;;
7753;SDS011;3921;42.266;23.122;2023-04-29T10:53:28;14.67;;;5.90;;
7753;SDS011;3921;42.266;23.122;2023-04-29T10:55:58;18.13;;;5.47;;
7753;SDS011;3921;42.266;23.122;2023-04-29T10:58:34;17.77;;;5.40;;
7753;SDS011;3921;42.266;23.122;2023-04-29T11:01:06;22.30;;;7.83;;
7753;SDS011;3921;42.266;23.122;2023-04-29T11:03:46;27.10;;;9.93;;
7753;SDS011;3921;42.266;23.122;2023-04-29T11:06:23;22.80;;;9.57;;
7753;SDS011;3921;42.266;23.122;2023-04-29T11:09:01;12.97;;;6.60;;
7753;SDS011;3921;42.266;23.122;2023-04-29T11:11:41;22.80;;;7.57;;
7753;SDS011;3921;42.266;23.122;2023-04-29T11:14:27;27.73;;;9.97;;
7753;SDS011;3921;42.266;23.122;2023-04-29T11:16:56;27.93;;;11.07;;
7753;SDS011;3921;42.266;23.122;2023-04-29T11:19:25;25.40;;;8.00;;
7753;SDS011;3921;42.266;23.122;2023-04-29T11:22:06;30.10;;;9.50;;
7753;SDS011;3921;42.266;23.122;2023-04-29T11:24:35;39.50;;;11.23;;
7753;SDS011;3921;42.266;23.122;2023-04-29T11:27:13;42.23;;;11.77;;
7753;SDS011;3921;42.266;23.122;2023-04-29T11:29:42;48.57;;;13.30;;
7753;SDS011;3921;42.266;23.122;2023-04-29T11:32:11;47.53;;;11.53;;
7753;SDS011;3921;42.266;23.122;2023-04-29T11:34:38;47.43;;;12.40;;
7753;SDS011;3921;42.266;23.122;2023-04-29T11:37:06;34.13;;;10.43;;
7753;SDS011;3921;42.266;23.122;2023-04-29T11:39:33;29.83;;;9.67;;
7753;SDS011;3921;42.266;23.122;2023-04-29T11:42:04;27.67;;;8.53;;
7753;SDS011;3921;42.266;23.122;2023-04-29T11:44:35;33.10;;;8.97;;
7753;SDS011;3921;42.266;23.122;2023-04-29T11:47:04;31.67;;;9.33;;
7753;SDS011;3921;42.266;23.122;2023-04-29T11:49:31;30.87;;;8.47;;
7753;SDS011;3921;42.266;23.122;2023-04-29T11:51:59;30.37;;;8.43;;
7753;SDS011;3921;42.266;23.122;2023-04-29T11:54:28;24.37;;;6.60;;
7753;SDS011;3921;42.266;23.122;2023-04-29T11:56:57;22.50;;;6.90;;
7753;SDS011;3921;42.266;23.122;2023-04-29T11:59:28;29.13;;;10.83;;
7753;SDS011;3921;42.266;23.122;2023-04-29T12:01:58;49.57;;;19.80;;
7753;SDS011;3921;42.266;23.122;2023-04-29T12:04:28;49.07;;;20.13;;
7753;SDS011;3921;42.266;23.122;2023-04-29T12:06:55;35.83;;;15.40;;
7753;SDS011;3921;42.266;23.122;2023-04-29T12:09:23;41.30;;;16.80;;
7753;SDS011;3921;42.266;23.122;2023-04-29T12:11:51;35.97;;;16.30;;
7753;SDS011;3921;42.266;23.122;2023-04-29T12:14:19;37.73;;;15.43;;
7753;SDS011;3921;42.266;23.122;2023-04-29T12:16:47;38.60;;;14.70;;
7753;SDS011;3921;42.266;23.122;2023-04-29T12:19:18;34.73;;;13.83;;
7753;SDS011;3921;42.266;23.122;2023-04-29T12:21:50;29.93;;;12.60;;
7753;SDS011;3921;42.266;23.122;2023-04-29T12:24:19;25.93;;;10.83;;
7753;SDS011;3921;42.266;23.122;2023-04-29T12:26:48;19.60;;;7.37;;
7753;SDS011;3921;42.266;23.122;2023-04-29T12:29:15;14.17;;;6.23;;
7753;SDS011;3921;42.266;23.122;2023-04-29T12:31:46;13.70;;;6.57;;
7753;SDS011;3921;42.266;23.122;2023-04-29T12:34:13;14.10;;;5.03;;
7753;SDS011;3921;42.266;23.122;2023-04-29T12:36:41;16.50;;;5.07;;
7753;SDS011;3921;42.266;23.122;2023-04-29T12:39:10;8.90;;;4.63;;
7753;SDS011;3921;42.266;23.122;2023-04-29T12:41:38;12.27;;;5.30;;
7753;SDS011;3921;42.266;23.122;2023-04-29T12:44:06;13.67;;;5.83;;
7753;SDS011;3921;42.266;23.122;2023-04-29T12:46:35;22.17;;;10.07;;
7753;SDS011;3921;42.266;23.122;2023-04-29T12:49:04;22.77;;;11.17;;
7753;SDS011;3921;42.266;23.122;2023-04-29T12:51:32;22.13;;;10.23;;
7753;SDS011;3921;42.266;23.122;2023-04-29T12:54:00;20.83;;;9.73;;
7753;SDS011;3921;42.266;23.122;2023-04-29T12:56:29;17.63;;;9.30;;
7753;SDS011;3921;42.266;23.122;2023-04-29T12:59:03;20.80;;;8.50;;
7753;SDS011;3921;42.266;23.122;2023-04-29T13:01:31;16.03;;;8.23;;
7753;SDS011;3921;42.266;23.122;2023-04-29T13:04:01;20.97;;;7.33;;
7753;SDS011;3921;42.266;23.122;2023-04-29T13:06:29;20.47;;;9.73;;
7753;SDS011;3921;42.266;23.122;2023-04-29T13:08:57;23.23;;;8.70;;
7753;SDS011;3921;42.266;23.122;2023-04-29T13:11:24;24.13;;;8.30;;
7753;SDS011;3921;42.266;23.122;2023-04-29T13:13:53;19.07;;;7.37;;
7753;SDS011;3921;42.266;23.122;2023-04-29T13:16:20;19.23;;;9.03;;
7753;SDS011;3921;42.266;23.122;2023-04-29T13:18:48;18.73;;;8.47;;
7753;SDS011;3921;42.266;23.122;2023-04-29T13:21:16;18.07;;;8.70;;
7753;SDS011;3921;42.266;23.122;2023-04-29T13:23:43;15.53;;;7.27;;
7753;SDS011;3921;42.266;23.122;2023-04-29T13:26:10;13.57;;;6.83;;
7753;SDS011;3921;42.266;23.122;2023-04-29T13:28:38;9.53;;;4.67;;
7753;SDS011;3921;42.266;23.122;2023-04-29T13:31:07;9.33;;;3.97;;
7753;SDS011;3921;42.266;23.122;2023-04-29T13:33:34;4.73;;;3.40;;
7753;SDS011;3921;42.266;23.122;2023-04-29T13:36:01;6.17;;;3.87;;
7753;SDS011;3921;42.266;23.122;2023-04-29T13:38:28;10.40;;;5.17;;
7753;SDS011;3921;42.266;23.122;2023-04-29T13:40:56;9.83;;;4.97;;
7753;SDS011;3921;42.266;23.122;2023-04-29T13:43:25;9.37;;;5.00;;
7753;SDS011;3921;42.266;23.122;2023-04-29T13:45:53;5.43;;;4.70;;
7753;SDS011;3921;42.266;23.122;2023-04-29T13:48:21;7.67;;;4.30;;
7753;SDS011;3921;42.266;23.122;2023-04-29T13:50:49;8.47;;;4.00;;
7753;SDS011;3921;42.266;23.122;2023-04-29T13:53:16;6.03;;;4.20;;
7753;SDS011;3921;42.266;23.122;2023-04-29T13:55:43;6.83;;;3.80;;
7753;SDS011;3921;42.266;23.122;2023-04-29T13:58:10;5.70;;;3.97;;
7753;SDS011;3921;42.266;23.122;2023-04-29T14:00:37;5.93;;;3.67;;
7753;SDS011;3921;42.266;23.122;2023-04-29T14:03:05;5.23;;;3.80;;
7753;SDS011;3921;42.266;23.122;2023-04-29T14:05:34;6.77;;;3.60;;
7753;SDS011;3921;42.266;23.122;2023-04-29T14:08:01;7.37;;;3.80;;
7753;SDS011;3921;42.266;23.122;2023-04-29T14:10:28;4.10;;;3.33;;
7753;SDS011;3921;42.266;23.122;2023-04-29T14:12:55;5.17;;;3.70;;
7753;SDS011;3921;42.266;23.122;2023-04-29T14:15:22;6.67;;;4.07;;
7753;SDS011;3921;42.266;23.122;2023-04-29T14:17:49;5.20;;;3.40;;
7753;SDS011;3921;42.266;23.122;2023-04-29T14:20:17;5.23;;;3.93;;
7753;SDS011;3921;42.266;23.122;2023-04-29T14:22:47;4.10;;;3.37;;
7753;SDS011;3921;42.266;23.122;2023-04-29T14:25:17;5.83;;;3.33;;
7753;SDS011;3921;42.266;23.122;2023-04-29T14:27:44;6.33;;;4.63;;
7753;SDS011;3921;42.266;23.122;2023-04-29T14:30:13;4.70;;;3.50;;
7753;SDS011;3921;42.266;23.122;2023-04-29T14:32:40;6.77;;;3.80;;
7753;SDS011;3921;42.266;23.122;2023-04-29T14:35:08;4.60;;;3.57;;
7753;SDS011;3921;42.266;23.122;2023-04-29T14:37:35;4.37;;;3.43;;
7753;SDS011;3921;42.266;23.122;2023-04-29T14:40:04;6.10;;;3.70;;
7753;SDS011;3921;42.266;23.122;2023-04-29T14:42:33;4.20;;;3.23;;
7753;SDS011;3921;42.266;23.122;2023-04-29T14:45:01;3.30;;;2.90;;
7753;SDS011;3921;42.266;23.122;2023-04-29T14:47:28;4.40;;;2.90;;
7753;SDS011;3921;42.266;23.122;2023-04-29T14:49:56;4.03;;;2.87;;
7753;SDS011;3921;42.266;23.122;2023-04-29T14:52:23;3.47;;;2.93;;
7753;SDS011;3921;42.266;23.122;2023-04-29T14:54:51;4.97;;;3.80;;
7753;SDS011;3921;42.266;23.122;2023-04-29T14:57:19;3.57;;;3.27;;
7753;SDS011;3921;42.266;23.122;2023-04-29T14:59:47;3.90;;;3.30;;
7753;SDS011;3921;42.266;23.122;2023-04-29T15:02:15;4.43;;;3.50;;
7753;SDS011;3921;42.266;23.122;2023-04-29T15:04:42;7.67;;;3.63;;
7753;SDS011;3921;42.266;23.122;2023-04-29T15:07:10;4.73;;;3.97;;
7753;SDS011;3921;42.266;23.122;2023-04-29T15:09:37;5.57;;;3.40;;
7753;SDS011;3921;42.266;23.122;2023-04-29T15:12:04;4.13;;;3.70;;
7753;SDS011;3921;42.266;23.122;2023-04-29T15:14:33;6.30;;;4.00;;
7753;SDS011;3921;42.266;23.122;2023-04-29T15:17:00;7.07;;;4.00;;
7753;SDS011;3921;42.266;23.122;2023-04-29T15:19:27;5.67;;;4.33;;
7753;SDS011;3921;42.266;23.122;2023-04-29T15:21:55;5.83;;;3.97;;